createdAt,value
2019-02-24T00:01:28.004Z,9.28
2019-02-24T00:03:59.332Z,10.07
2019-02-24T00:06:30.712Z,9.53
2019-02-24T00:09:02.114Z,9.23
2019-02-24T00:11:35.019Z,10.20
2019-02-24T00:14:06.270Z,10.98
2019-02-24T00:16:37.713Z,8.58
2019-02-24T00:19:09.150Z,10.32
2019-02-24T00:21:40.618Z,9.80
2019-02-24T00:24:11.859Z,9.60
2019-02-24T00:26:43.299Z,10.28
2019-02-24T00:29:14.678Z,10.55
2019-02-24T00:31:45.992Z,10.48
2019-02-24T00:34:17.447Z,9.33
2019-02-24T00:36:48.911Z,9.55
2019-02-24T00:39:20.577Z,12.53
2019-02-24T00:41:52.005Z,13.78
2019-02-24T00:44:23.393Z,10.60
2019-02-24T00:46:54.714Z,11.68
2019-02-24T00:49:26.053Z,12.37
2019-02-24T00:51:57.427Z,10.85
2019-02-24T00:54:28.778Z,11.90
2019-02-24T00:57:00.099Z,12.20
2019-02-24T00:59:31.406Z,12.88
2019-02-24T01:02:02.842Z,12.37
2019-02-24T01:04:34.336Z,13.58
2019-02-24T01:07:06.813Z,12.27
2019-02-24T01:09:38.138Z,12.43
2019-02-24T01:12:09.474Z,13.65
2019-02-24T01:14:41.993Z,12.40
2019-02-24T01:17:13.440Z,13.62
2019-02-24T01:19:44.881Z,12.47
2019-02-24T01:22:16.355Z,16.37
2019-02-24T01:24:47.776Z,15.50
2019-02-24T01:27:19.225Z,15.78
2019-02-24T01:29:50.710Z,16.17
2019-02-24T01:32:22.152Z,13.85
2019-02-24T01:34:53.611Z,16.97
2019-02-24T01:37:25.055Z,14.90
2019-02-24T01:39:56.487Z,17.55
2019-02-24T01:42:27.819Z,19.15
2019-02-24T01:44:59.295Z,15.18
2019-02-24T01:47:30.651Z,11.60
2019-02-24T01:50:02.131Z,11.10
2019-02-24T01:52:33.609Z,12.45
2019-02-24T01:55:04.991Z,12.90
2019-02-24T01:57:36.471Z,13.30
2019-02-24T02:00:10.215Z,13.32
2019-02-24T02:02:41.870Z,13.00
2019-02-24T02:05:13.247Z,12.80
2019-02-24T02:07:44.586Z,12.23
2019-02-24T02:10:15.853Z,13.10
2019-02-24T02:12:47.288Z,13.45
2019-02-24T02:15:18.690Z,12.30
2019-02-24T02:17:50.015Z,13.32
2019-02-24T02:20:21.457Z,13.72
2019-02-24T02:22:54.008Z,12.00
2019-02-24T02:25:25.340Z,12.78
2019-02-24T02:27:56.689Z,13.40
2019-02-24T02:30:28.059Z,13.00
2019-02-24T02:32:59.510Z,14.13
2019-02-24T02:35:30.752Z,15.35
2019-02-24T02:38:02.106Z,18.87
2019-02-24T02:40:33.468Z,17.15
2019-02-24T02:43:04.810Z,18.77
2019-02-24T02:45:36.082Z,16.00
2019-02-24T02:48:07.485Z,14.78
2019-02-24T02:50:38.855Z,12.80
2019-02-24T02:53:10.347Z,14.13
2019-02-24T02:55:41.755Z,12.58
2019-02-24T02:58:13.207Z,13.43
2019-02-24T03:00:44.560Z,14.35
2019-02-24T03:03:15.989Z,14.95
2019-02-24T03:05:48.903Z,15.72
2019-02-24T03:08:21.793Z,14.07
2019-02-24T03:10:53.218Z,16.57
2019-02-24T03:13:24.613Z,19.35
2019-02-24T03:15:55.947Z,20.15
2019-02-24T03:18:27.291Z,20.32
2019-02-24T03:20:58.793Z,23.70
2019-02-24T03:23:30.141Z,21.45
2019-02-24T03:26:01.607Z,24.10
2019-02-24T03:28:34.034Z,25.17
2019-02-24T03:31:05.438Z,28.02
2019-02-24T03:33:36.815Z,24.90
2019-02-24T03:36:08.430Z,25.65
2019-02-24T03:38:39.915Z,26.50
2019-02-24T03:41:11.494Z,28.42
2019-02-24T03:43:42.990Z,24.20
2019-02-24T03:46:14.496Z,21.33
2019-02-24T03:48:45.942Z,21.65
2019-02-24T03:51:17.320Z,22.30
2019-02-24T03:53:48.895Z,21.33
2019-02-24T03:56:20.346Z,22.95
2019-02-24T03:58:51.783Z,22.35
2019-02-24T04:01:23.376Z,24.60
2019-02-24T04:03:54.739Z,24.67
2019-02-24T04:06:26.054Z,26.35
2019-02-24T04:08:57.468Z,27.50
2019-02-24T04:11:28.810Z,26.68
2019-02-24T04:14:00.290Z,26.48
2019-02-24T04:16:31.857Z,28.42
2019-02-24T04:19:03.238Z,31.05
2019-02-24T04:21:34.867Z,32.42
2019-02-24T04:24:06.283Z,36.98
2019-02-24T04:26:37.667Z,43.23
2019-02-24T04:29:09.091Z,55.33
2019-02-24T04:31:40.562Z,50.88
2019-02-24T04:34:11.997Z,68.57
2019-02-24T04:36:43.446Z,64.97
2019-02-24T04:39:14.934Z,74.55
2019-02-24T04:41:46.265Z,70.72
2019-02-24T04:44:17.584Z,68.78
2019-02-24T04:46:49.058Z,71.05
2019-02-24T04:49:20.497Z,78.22
2019-02-24T04:51:51.983Z,80.95
2019-02-24T04:56:54.011Z,76.60
2019-02-24T04:59:34.612Z,73.80
2019-02-24T05:01:58.529Z,67.03
2019-02-24T05:04:29.947Z,54.05
2019-02-24T05:07:01.474Z,48.15
2019-02-24T05:09:33.899Z,26.27
2019-02-24T05:12:05.392Z,19.48
2019-02-24T05:14:36.825Z,19.32
2019-02-24T05:17:08.206Z,16.45
2019-02-24T05:19:39.629Z,16.85
2019-02-24T05:22:11.091Z,14.45
2019-02-24T05:24:42.532Z,13.78
2019-02-24T05:27:13.983Z,16.85
2019-02-24T05:29:46.568Z,19.03
2019-02-24T05:32:17.948Z,24.60
2019-02-24T05:34:49.361Z,24.82
2019-02-24T05:37:20.849Z,33.25
2019-02-24T05:39:52.200Z,27.58
2019-02-24T05:42:23.596Z,24.10
2019-02-24T05:44:55.095Z,20.88
2019-02-24T05:47:26.501Z,21.85
2019-02-24T05:49:57.965Z,21.90
2019-02-24T05:52:29.296Z,24.63
2019-02-24T05:55:00.743Z,25.82
2019-02-24T05:57:32.073Z,20.97
2019-02-24T06:00:03.753Z,21.68
2019-02-24T06:02:36.335Z,20.27
2019-02-24T06:05:09.286Z,18.48
2019-02-24T06:07:40.762Z,16.47
2019-02-24T06:10:12.159Z,15.43
2019-02-24T06:12:43.495Z,13.08
2019-02-24T06:15:14.917Z,11.30
2019-02-24T06:17:46.372Z,12.07
2019-02-24T06:20:17.814Z,11.50
2019-02-24T06:22:49.274Z,12.40
2019-02-24T06:25:20.731Z,11.45
2019-02-24T06:27:52.069Z,10.43
2019-02-24T06:30:23.507Z,12.37
2019-02-24T06:32:54.949Z,11.88
2019-02-24T06:35:26.365Z,11.15
2019-02-24T06:37:57.782Z,11.30
2019-02-24T06:40:29.157Z,11.22
2019-02-24T06:43:00.667Z,10.72
2019-02-24T06:45:31.985Z,8.88
2019-02-24T06:48:03.364Z,7.22
2019-02-24T06:50:51.772Z,7.17
2019-02-24T06:53:23.118Z,8.50
2019-02-24T06:55:54.586Z,9.13
2019-02-24T06:58:25.919Z,9.48
2019-02-24T07:00:57.259Z,7.30
2019-02-24T07:03:29.780Z,8.40
2019-02-24T07:06:01.234Z,7.92
2019-02-24T07:08:32.605Z,7.37
2019-02-24T07:11:04.094Z,9.40
2019-02-24T07:13:35.595Z,8.78
2019-02-24T07:16:07.009Z,7.50
2019-02-24T07:18:38.318Z,6.03
2019-02-24T07:21:09.714Z,7.47
2019-02-24T07:23:41.159Z,9.30
2019-02-24T07:26:12.490Z,8.55
2019-02-24T07:28:43.830Z,8.60
2019-02-24T07:31:15.323Z,7.55
2019-02-24T07:33:46.765Z,9.15
2019-02-24T07:36:18.102Z,9.40
2019-02-24T07:38:49.559Z,9.20
2019-02-24T07:41:21.010Z,9.15
2019-02-24T07:43:52.323Z,11.40
2019-02-24T07:46:23.649Z,7.55
2019-02-24T07:48:55.067Z,9.30
2019-02-24T07:51:26.553Z,9.78
2019-02-24T07:53:57.901Z,11.68
2019-02-24T07:56:29.440Z,13.43
2019-02-24T07:59:00.768Z,15.55
2019-02-24T08:01:32.159Z,11.60
2019-02-24T08:04:03.539Z,12.98
2019-02-24T08:06:35.014Z,12.35
2019-02-24T08:09:06.464Z,11.97
2019-02-24T08:11:37.952Z,11.48
2019-02-24T08:14:09.400Z,10.95
2019-02-24T08:16:40.904Z,12.03
2019-02-24T08:19:12.310Z,12.78
2019-02-24T08:21:43.817Z,11.38
2019-02-24T08:24:15.268Z,11.18
2019-02-24T08:26:46.720Z,10.85
2019-02-24T08:29:18.167Z,10.18
2019-02-24T08:31:49.539Z,11.38
2019-02-24T08:34:20.921Z,13.25
2019-02-24T08:36:52.425Z,14.35
2019-02-24T08:39:23.881Z,14.30
2019-02-24T08:41:55.315Z,11.97
2019-02-24T08:44:26.867Z,20.08
2019-02-24T08:46:58.610Z,18.12
2019-02-24T08:49:30.179Z,18.17
2019-02-24T08:52:01.619Z,17.05
2019-02-24T08:54:32.981Z,13.75
2019-02-24T08:57:04.317Z,12.93
2019-02-24T08:59:35.752Z,14.03
2019-02-24T09:02:07.206Z,12.43
2019-02-24T09:19:59.696Z,12.23
2019-02-24T09:22:31.035Z,9.08
2019-02-24T09:25:03.361Z,8.40
2019-02-24T09:27:35.091Z,7.20
2019-02-24T09:30:13.663Z,7.17
2019-02-24T09:32:45.049Z,6.85
2019-02-24T09:35:16.459Z,5.87
2019-02-24T09:37:48.013Z,6.72
2019-02-24T09:40:19.369Z,8.55
2019-02-24T09:42:51.292Z,7.28
2019-02-24T09:45:22.692Z,6.62
2019-02-24T09:47:54.038Z,9.60
2019-02-24T09:50:25.471Z,8.23
2019-02-24T09:52:56.856Z,5.85
2019-02-24T09:55:28.180Z,8.58
2019-02-24T09:57:59.544Z,8.23
2019-02-24T10:00:30.991Z,10.35
2019-02-24T10:03:02.730Z,7.72
2019-02-24T10:05:34.079Z,10.70
2019-02-24T10:08:05.415Z,9.15
2019-02-24T21:21:35.456Z,14.65
2019-02-24T21:26:55.166Z,12.85
2019-02-24T21:29:28.910Z,13.75
2019-02-24T21:32:00.240Z,16.12
2019-02-24T21:34:31.682Z,16.20
2019-02-24T21:37:03.145Z,15.38
2019-02-24T21:39:34.499Z,15.65
2019-02-24T21:42:06.065Z,19.15
2019-02-24T21:44:37.391Z,16.75
2019-02-24T21:47:08.755Z,13.72
2019-02-24T21:49:40.165Z,12.50
2019-02-24T21:52:11.687Z,18.40
2019-02-24T21:54:43.036Z,16.93
2019-02-24T21:57:14.349Z,19.02
2019-02-24T21:59:45.667Z,25.27
2019-02-24T22:02:17.129Z,20.50
2019-02-24T22:04:48.497Z,24.20
2019-02-24T22:07:19.918Z,20.75
2019-02-24T22:09:51.459Z,20.45
2019-02-24T22:12:22.709Z,24.63
2019-02-24T22:14:54.168Z,17.62
2019-02-24T22:17:25.710Z,17.40
2019-02-24T22:19:57.056Z,12.30
2019-02-24T22:22:28.525Z,14.45
2019-02-24T22:24:59.963Z,11.00
2019-02-24T22:27:31.423Z,16.80
2019-02-24T22:30:02.868Z,14.83
2019-02-24T22:32:34.416Z,14.28
2019-02-24T22:35:06.796Z,13.28
2019-02-24T22:37:38.231Z,11.45
2019-02-24T22:40:11.801Z,12.53
2019-02-24T22:42:44.202Z,12.25
2019-02-24T22:45:17.360Z,12.15
2019-02-24T22:47:48.856Z,10.85
2019-02-24T22:50:20.219Z,10.58
2019-02-24T22:52:51.552Z,8.20
2019-02-24T22:55:23.001Z,9.28
2019-02-24T22:57:54.432Z,12.70
2019-02-24T23:00:54.571Z,11.68
2019-02-24T23:03:30.240Z,12.23
2019-02-24T23:06:02.982Z,11.88
2019-02-24T23:08:34.350Z,12.35
2019-02-24T23:11:05.800Z,12.43
2019-02-24T23:13:39.269Z,8.60
2019-02-24T23:16:10.341Z,11.38
2019-02-24T23:18:41.796Z,10.32
2019-02-24T23:21:13.201Z,11.18
2019-02-24T23:23:44.592Z,11.00
2019-02-24T23:26:15.902Z,10.88
2019-02-24T23:28:47.246Z,11.20
2019-02-24T23:31:18.731Z,10.85
2019-02-24T23:33:50.005Z,11.35
2019-02-24T23:36:21.447Z,13.80
2019-02-24T23:38:53.507Z,11.45
2019-02-24T23:41:24.847Z,11.45
2019-02-24T23:43:56.281Z,13.13
2019-02-24T23:46:27.653Z,8.48
2019-02-24T23:48:59.158Z,13.18
2019-02-24T23:51:30.671Z,16.90
2019-02-24T23:54:02.001Z,14.83
2019-02-24T23:56:33.488Z,15.45
2019-02-24T23:59:04.830Z,14.50
